createdAt,value
2016-07-25T00:00:31.612Z,0
2016-07-25T00:01:31.651Z,0
2016-07-25T00:02:31.639Z,0
2016-07-25T00:03:31.626Z,0
2016-07-25T00:04:31.628Z,0
2016-07-25T00:05:31.664Z,0
2016-07-25T00:06:31.673Z,0
2016-07-25T00:07:31.654Z,0
2016-07-25T00:08:31.671Z,0
2016-07-25T00:09:31.648Z,0
2016-07-25T00:10:31.634Z,0
2016-07-25T00:11:31.694Z,0
2016-07-25T00:12:31.674Z,0
2016-07-25T00:13:31.685Z,0
2016-07-25T00:14:31.667Z,0
2016-07-25T00:15:44.261Z,0
2016-07-25T00:16:31.670Z,0
2016-07-25T00:17:31.657Z,0
2016-07-25T00:18:31.621Z,0
2016-07-25T00:19:31.693Z,0
2016-07-25T00:20:31.701Z,0
2016-07-25T00:21:31.673Z,0
2016-07-25T00:22:31.677Z,0
2016-07-25T00:23:31.696Z,0
2016-07-25T00:24:31.692Z,0
2016-07-25T00:25:31.696Z,0
2016-07-25T00:26:31.673Z,0
2016-07-25T00:27:31.695Z,0
2016-07-25T00:28:31.686Z,0
2016-07-25T00:29:31.700Z,0
2016-07-25T00:30:31.707Z,0
2016-07-25T00:31:31.690Z,0
2016-07-25T00:32:47.074Z,0
2016-07-25T00:33:31.734Z,0
2016-07-25T00:34:31.754Z,0
2016-07-25T00:35:31.718Z,0
2016-07-25T00:36:31.740Z,0
2016-07-25T00:37:31.772Z,0
2016-07-25T00:38:31.693Z,0
2016-07-25T00:39:31.715Z,0
2016-07-25T00:40:31.701Z,0
2016-07-25T00:41:31.740Z,0
2016-07-25T00:42:31.806Z,0
2016-07-25T00:43:31.714Z,0
2016-07-25T00:44:31.694Z,0
2016-07-25T00:45:31.698Z,0
2016-07-25T00:46:31.719Z,0
2016-07-25T00:47:31.725Z,0
2016-07-25T00:48:31.728Z,0
2016-07-25T00:49:31.732Z,0
2016-07-25T00:50:31.744Z,0
2016-07-25T00:51:31.750Z,0
2016-07-25T00:52:31.746Z,0
2016-07-25T00:53:31.746Z,0
2016-07-25T00:54:31.724Z,0
2016-07-25T00:55:31.744Z,0
2016-07-25T00:56:31.740Z,0
2016-07-25T00:57:31.744Z,0
2016-07-25T00:58:31.732Z,0
2016-07-25T00:59:31.791Z,0
2016-07-25T01:00:31.778Z,0
2016-07-25T01:01:31.755Z,0
2016-07-25T01:02:31.765Z,0
2016-07-25T01:03:31.799Z,0
2016-07-25T01:04:31.770Z,0
2016-07-25T01:05:31.795Z,0
2016-07-25T01:06:31.788Z,0
2016-07-25T01:07:31.797Z,0
2016-07-25T01:08:31.822Z,0
2016-07-25T01:09:31.807Z,0
2016-07-25T01:10:31.777Z,0
2016-07-25T01:11:31.811Z,0
2016-07-25T01:12:31.801Z,0
2016-07-25T01:13:31.753Z,0
2016-07-25T01:14:31.804Z,0
2016-07-25T01:15:31.815Z,0
2016-07-25T01:16:31.794Z,0
2016-07-25T01:17:31.850Z,0
2016-07-25T01:18:31.777Z,0
2016-07-25T01:19:31.807Z,0
2016-07-25T01:20:31.788Z,0
2016-07-25T01:21:31.788Z,0
2016-07-25T01:22:31.835Z,0
2016-07-25T01:23:31.803Z,0
2016-07-25T01:24:31.800Z,0
2016-07-25T01:25:31.818Z,0
2016-07-25T01:26:31.858Z,0
2016-07-25T01:27:31.806Z,0
2016-07-25T01:28:31.849Z,0
2016-07-25T01:29:31.835Z,0
2016-07-25T01:30:31.824Z,0
2016-07-25T01:31:31.794Z,0
2016-07-25T01:32:31.845Z,0
2016-07-25T01:33:31.832Z,0
2016-07-25T01:34:31.842Z,0
2016-07-25T01:35:31.799Z,0
2016-07-25T01:36:31.826Z,0
2016-07-25T01:37:31.838Z,0
2016-07-25T01:38:31.830Z,0
2016-07-25T01:39:31.822Z,0
2016-07-25T01:40:31.822Z,0
2016-07-25T01:41:31.841Z,0
2016-07-25T01:42:31.851Z,0
2016-07-25T01:43:31.833Z,0
2016-07-25T01:44:31.845Z,0
2016-07-25T01:45:31.859Z,0
2016-07-25T01:46:31.874Z,0
2016-07-25T01:47:31.872Z,0
2016-07-25T01:48:31.867Z,0
2016-07-25T01:49:31.827Z,0
2016-07-25T01:50:31.890Z,0
2016-07-25T01:51:31.870Z,0
2016-07-25T01:52:31.860Z,0
2016-07-25T01:53:31.861Z,0
2016-07-25T01:54:31.893Z,0
2016-07-25T01:55:31.857Z,0
2016-07-25T01:56:31.857Z,0
2016-07-25T01:57:31.863Z,0
2016-07-25T01:58:31.846Z,0
2016-07-25T01:59:31.882Z,0
2016-07-25T02:00:31.893Z,0
2016-07-25T02:01:31.887Z,0
2016-07-25T02:02:31.916Z,0
2016-07-25T02:03:31.893Z,0
2016-07-25T02:04:31.906Z,0
2016-07-25T02:05:31.895Z,0
2016-07-25T02:06:31.918Z,0
2016-07-25T02:07:31.915Z,0
2016-07-25T02:08:31.891Z,0
2016-07-25T02:09:31.902Z,0
2016-07-25T02:10:31.944Z,0
2016-07-25T02:11:31.927Z,0
2016-07-25T02:12:31.964Z,0
2016-07-25T02:13:31.970Z,0
2016-07-25T02:25:49.519Z,0
2016-07-25T02:26:49.500Z,0
2016-07-25T02:27:49.507Z,0
2016-07-25T02:28:49.470Z,0
2016-07-25T02:29:49.465Z,0
2016-07-25T02:30:49.471Z,0
2016-07-25T02:31:50.441Z,0
2016-07-25T02:32:49.293Z,0
2016-07-25T02:33:49.519Z,0
2016-07-25T02:34:49.554Z,0
2016-07-25T02:35:49.586Z,0
2016-07-25T02:36:49.598Z,0
2016-07-25T02:37:50.457Z,0
2016-07-25T02:38:49.348Z,0
2016-07-25T02:39:49.406Z,0
2016-07-25T02:40:49.908Z,0
2016-07-25T02:41:49.573Z,0
2016-07-25T02:42:49.328Z,0
2016-07-25T02:43:49.386Z,0
2016-07-25T02:44:49.370Z,0
2016-07-25T02:45:49.399Z,0
2016-07-25T02:46:49.357Z,0
2016-07-25T02:47:49.352Z,0
2016-07-25T02:48:49.569Z,0
2016-07-25T02:49:49.370Z,0
2016-07-25T02:50:49.357Z,0
2016-07-25T02:51:49.636Z,0
2016-07-25T02:52:49.453Z,0
2016-07-25T02:53:49.812Z,0
2016-07-25T02:54:49.379Z,0
2016-07-25T02:55:49.520Z,0
2016-07-25T02:56:49.385Z,0
2016-07-25T02:57:49.402Z,0
2016-07-25T02:58:49.420Z,0
2016-07-25T02:59:49.386Z,0
2016-07-25T03:00:49.415Z,0
2016-07-25T03:01:49.444Z,0
2016-07-25T03:02:49.386Z,4
2016-07-25T03:03:49.405Z,4
2016-07-25T03:04:49.415Z,0
2016-07-25T03:05:49.409Z,0
2016-07-25T03:06:49.459Z,4
2016-07-25T03:07:49.401Z,4
2016-07-25T03:08:49.424Z,4
2016-07-25T03:09:49.942Z,0
2016-07-25T03:10:49.396Z,4
2016-07-25T03:11:49.438Z,4
2016-07-25T03:12:50.059Z,4
2016-07-25T03:13:49.414Z,4
2016-07-25T03:14:49.409Z,4
2016-07-25T03:15:49.482Z,8
2016-07-25T03:16:49.473Z,8
2016-07-25T03:17:49.424Z,8
2016-07-25T03:18:49.392Z,8
2016-07-25T03:19:49.379Z,8
2016-07-25T03:20:49.431Z,12
2016-07-25T03:21:49.367Z,8
2016-07-25T03:22:49.415Z,12
2016-07-25T03:23:49.392Z,12
2016-07-25T03:24:49.445Z,16
2016-07-25T03:25:49.482Z,16
2016-07-25T03:26:49.422Z,16
2016-07-25T03:27:49.417Z,20
2016-07-25T03:28:49.424Z,24
2016-07-25T03:29:49.446Z,28
2016-07-25T03:30:49.498Z,36
2016-07-25T03:31:49.443Z,40
2016-07-25T03:32:49.449Z,48
2016-07-25T03:33:49.439Z,52
2016-07-25T03:34:49.493Z,60
2016-07-25T03:35:49.436Z,68
2016-07-25T03:36:49.456Z,72
2016-07-25T03:37:49.462Z,80
2016-07-25T03:38:49.478Z,88
2016-07-25T03:39:49.462Z,96
2016-07-25T03:40:49.485Z,108
2016-07-25T03:41:49.501Z,112
2016-07-25T03:42:49.461Z,124
2016-07-25T03:43:49.465Z,132
2016-07-25T03:44:49.485Z,144
2016-07-25T03:45:49.478Z,156
2016-07-25T03:46:49.454Z,164
2016-07-25T03:47:49.471Z,172
2016-07-25T03:48:49.491Z,180
2016-07-25T03:49:49.462Z,192
2016-07-25T03:50:49.462Z,192
2016-07-25T03:51:49.481Z,208
2016-07-25T03:52:49.474Z,220
2016-07-25T03:53:49.472Z,236
2016-07-25T03:54:49.501Z,248
2016-07-25T03:55:49.501Z,268
2016-07-25T03:56:49.530Z,280
2016-07-25T03:57:49.489Z,304
2016-07-25T03:58:49.519Z,332
2016-07-25T03:59:49.484Z,356
2016-07-25T04:00:49.519Z,384
2016-07-25T04:01:49.736Z,416
2016-07-25T04:02:49.519Z,456
2016-07-25T04:03:49.497Z,488
2016-07-25T04:04:53.279Z,520
2016-07-25T04:05:49.949Z,556
2016-07-25T04:06:49.516Z,588
2016-07-25T04:07:49.503Z,612
2016-07-25T04:08:49.522Z,632
2016-07-25T04:09:49.509Z,668
2016-07-25T04:10:49.517Z,696
2016-07-25T04:11:49.532Z,724
2016-07-25T04:12:49.532Z,760
2016-07-25T04:13:49.525Z,796
2016-07-25T04:14:49.509Z,824
2016-07-25T04:15:49.519Z,856
2016-07-25T04:16:49.542Z,912
2016-07-25T04:17:49.521Z,968
2016-07-25T04:18:49.539Z,1036
2016-07-25T04:19:49.535Z,1112
2016-07-25T04:20:49.573Z,1180
2016-07-25T04:21:49.676Z,1220
2016-07-25T04:22:49.545Z,1228
2016-07-25T04:23:49.535Z,1240
2016-07-25T04:24:49.550Z,1296
2016-07-25T04:25:49.567Z,1396
2016-07-25T04:26:49.526Z,1512
2016-07-25T04:27:49.544Z,1632
2016-07-25T04:28:49.573Z,1752
2016-07-25T04:29:50.551Z,1864
2016-07-25T04:30:49.571Z,1932
2016-07-25T04:31:49.554Z,1976
2016-07-25T04:32:49.541Z,2016
2016-07-25T04:33:49.573Z,2072
2016-07-25T04:34:49.580Z,2144
2016-07-25T04:35:49.580Z,2212
2016-07-25T04:36:49.568Z,2256
2016-07-25T04:37:49.669Z,2272
2016-07-25T04:38:49.567Z,2276
2016-07-25T04:39:49.665Z,2284
2016-07-25T04:40:49.596Z,2296
2016-07-25T04:41:49.590Z,2316
2016-07-25T04:42:49.738Z,2352
2016-07-25T04:43:49.612Z,2392
2016-07-25T04:44:49.705Z,2432
2016-07-25T04:45:51.945Z,2424
2016-07-25T04:46:49.624Z,2380
2016-07-25T04:47:49.613Z,2344
2016-07-25T04:48:49.587Z,2360
2016-07-25T04:49:49.608Z,2372
2016-07-25T04:50:49.583Z,2372
2016-07-25T04:51:49.620Z,2380
2016-07-25T04:52:49.573Z,2428
2016-07-25T04:53:49.590Z,2536
2016-07-25T04:54:49.682Z,2688
2016-07-25T04:55:49.632Z,2864
2016-07-25T04:56:49.634Z,3000
2016-07-25T04:57:49.658Z,3120
2016-07-25T04:58:49.624Z,3188
2016-07-25T04:59:49.625Z,3236
2016-07-25T05:00:49.634Z,3292
2016-07-25T05:01:49.657Z,3340
2016-07-25T05:02:49.631Z,3416
2016-07-25T05:03:49.622Z,3488
2016-07-25T05:04:49.615Z,3524
2016-07-25T05:05:49.619Z,3516
2016-07-25T05:06:49.599Z,3472
2016-07-25T05:07:49.637Z,3372
2016-07-25T05:08:49.657Z,3288
2016-07-25T05:09:49.677Z,3160
2016-07-25T05:10:49.657Z,3100
2016-07-25T05:11:49.662Z,3104
2016-07-25T05:12:49.699Z,3148
2016-07-25T05:13:49.703Z,3224
2016-07-25T05:14:49.660Z,3292
2016-07-25T05:15:49.678Z,3324
2016-07-25T05:16:49.774Z,3368
2016-07-25T05:17:49.669Z,3376
2016-07-25T05:18:49.674Z,3332
2016-07-25T05:19:49.663Z,3332
2016-07-25T05:20:49.702Z,3472
2016-07-25T05:21:49.675Z,3652
2016-07-25T05:22:49.688Z,3808
2016-07-25T05:23:49.683Z,3888
2016-07-25T05:24:49.684Z,3896
2016-07-25T05:25:49.665Z,3992
2016-07-25T05:26:49.686Z,4092
2016-07-25T05:27:49.667Z,4084
2016-07-25T05:28:49.686Z,4160
2016-07-25T05:29:49.677Z,4348
2016-07-25T05:30:49.687Z,4568
2016-07-25T05:31:49.719Z,4560
2016-07-25T05:32:49.741Z,4344
2016-07-25T05:33:49.702Z,4084
2016-07-25T05:34:49.681Z,3788
2016-07-25T05:35:49.689Z,3496
2016-07-25T05:36:49.682Z,3232
2016-07-25T05:37:49.731Z,3040
2016-07-25T05:38:49.731Z,2932
2016-07-25T05:39:49.730Z,2876
2016-07-25T05:40:49.701Z,2932
2016-07-25T05:41:49.700Z,3160
2016-07-25T05:42:49.775Z,3516
2016-07-25T05:43:49.785Z,3876
2016-07-25T05:44:49.800Z,4224
2016-07-25T05:45:49.719Z,4532
2016-07-25T05:46:49.762Z,4876
2016-07-25T05:47:49.752Z,5172
2016-07-25T05:48:49.747Z,5480
2016-07-25T05:49:49.758Z,5824
2016-07-25T05:50:49.728Z,5860
2016-07-25T05:51:50.283Z,5784
2016-07-25T05:52:49.712Z,5800
2016-07-25T05:53:49.734Z,5816
2016-07-25T05:54:49.816Z,6200
2016-07-25T05:55:50.335Z,6620
2016-07-25T05:56:50.389Z,6812
2016-07-25T05:57:49.756Z,7628
2016-07-25T05:58:49.842Z,7132
2016-07-25T05:59:49.794Z,7252
2016-07-25T06:00:49.793Z,7264
2016-07-25T06:01:49.884Z,7076
2016-07-25T06:02:49.794Z,7100
2016-07-25T06:03:49.786Z,7252
2016-07-25T06:04:49.777Z,7340
2016-07-25T06:05:49.800Z,7624
2016-07-25T06:06:49.739Z,8108
2016-07-25T06:07:49.773Z,8512
2016-07-25T06:08:49.831Z,8296
2016-07-25T06:09:49.830Z,7624
2016-07-25T06:10:49.858Z,6652
2016-07-25T06:11:49.794Z,5740
2016-07-25T06:12:49.775Z,5236
2016-07-25T06:13:49.806Z,4660
2016-07-25T06:14:49.807Z,4332
2016-07-25T06:15:49.848Z,4328
2016-07-25T06:16:58.231Z,4136
2016-07-25T06:17:49.875Z,3916
2016-07-25T06:18:49.829Z,3716
2016-07-25T06:19:49.798Z,3428
2016-07-25T06:20:49.842Z,3076
2016-07-25T06:21:49.824Z,2816
2016-07-25T06:22:49.867Z,2764
2016-07-25T06:23:49.830Z,2788
2016-07-25T06:24:49.791Z,2888
2016-07-25T06:25:49.805Z,3224
2016-07-25T06:26:49.851Z,3652
2016-07-25T06:27:49.877Z,4016
2016-07-25T06:28:50.058Z,4548
2016-07-25T06:29:49.843Z,4944
2016-07-25T06:30:51.622Z,5340
2016-07-25T06:31:49.929Z,5840
2016-07-25T06:33:49.856Z,6844
2016-07-25T06:34:50.195Z,7308
2016-07-25T06:35:49.337Z,7832
2016-07-25T06:36:49.847Z,8760
2016-07-25T06:37:49.851Z,9780
2016-07-25T06:38:49.857Z,10716
2016-07-25T06:39:49.877Z,11268
2016-07-25T06:40:49.862Z,11876
2016-07-25T06:41:49.875Z,12660
2016-07-25T06:42:49.884Z,12804
2016-07-25T06:43:49.890Z,12616
2016-07-25T06:44:49.922Z,11120
2016-07-25T06:46:05.957Z,9900
2016-07-25T06:46:49.226Z,9896
2016-07-25T06:47:49.284Z,10060
2016-07-25T06:48:50.616Z,11228
2016-07-25T06:49:49.894Z,11616
2016-07-25T06:50:49.872Z,11880
2016-07-25T06:51:49.862Z,11484
2016-07-25T06:52:49.821Z,11256
2016-07-25T06:53:50.028Z,11376
2016-07-25T06:54:49.887Z,11692
2016-07-25T06:55:48.453Z,11868
2016-07-25T06:56:50.021Z,12328
2016-07-25T06:57:49.996Z,12336
2016-07-25T06:58:49.885Z,13196
2016-07-25T06:59:50.042Z,16144
2016-07-25T07:00:49.975Z,15712
2016-07-25T07:01:49.923Z,14508
2016-07-25T07:02:50.265Z,14656
2016-07-25T07:03:49.877Z,15752
2016-07-25T07:04:49.954Z,16544
2016-07-25T07:05:49.958Z,16512
2016-07-25T07:06:50.057Z,15352
2016-07-25T07:07:49.974Z,14172
2016-07-25T07:08:49.950Z,13344
2016-07-25T07:09:49.511Z,13028
2016-07-25T07:10:50.099Z,13016
2016-07-25T07:11:50.021Z,12440
2016-07-25T07:12:49.999Z,11832
2016-07-25T07:13:50.903Z,12032
2016-07-25T07:14:49.975Z,11788
2016-07-25T07:15:54.131Z,11980
2016-07-25T07:16:50.255Z,10944
2016-07-25T07:17:49.930Z,10372
2016-07-25T07:18:50.020Z,10808
2016-07-25T07:19:50.020Z,10236
2016-07-25T07:20:49.929Z,9064
2016-07-25T07:21:49.935Z,9060
2016-07-25T07:22:50.369Z,10108
2016-07-25T07:23:50.017Z,10388
2016-07-25T07:24:49.962Z,10720
2016-07-25T07:25:51.523Z,10984
2016-07-25T07:26:50.206Z,11168
2016-07-25T07:27:51.300Z,11228
2016-07-25T07:28:49.951Z,11932
2016-07-25T07:29:52.514Z,13760
2016-07-25T07:30:50.487Z,13892
2016-07-25T07:31:49.694Z,13704
2016-07-25T07:32:49.437Z,12404
2016-07-25T07:33:50.265Z,12620
2016-07-25T07:34:50.370Z,13248
2016-07-25T07:35:50.049Z,12636
2016-07-25T07:36:50.724Z,12844
2016-07-25T07:37:50.038Z,13492
2016-07-25T07:38:49.999Z,13720
2016-07-25T07:39:52.050Z,13172
2016-07-25T07:40:49.959Z,12948
2016-07-25T07:41:50.009Z,12424
2016-07-25T07:42:49.997Z,11836
2016-07-25T07:43:50.227Z,11652
2016-07-25T07:44:50.946Z,11440
2016-07-25T07:46:00.652Z,11260
2016-07-25T07:46:50.007Z,11132
2016-07-25T07:47:53.920Z,11116
2016-07-25T07:49:02.611Z,10912
2016-07-25T07:49:50.867Z,10712
2016-07-25T07:50:55.119Z,11960
2016-07-25T07:51:49.997Z,19744
2016-07-25T07:52:50.045Z,23808
2016-07-25T07:53:50.261Z,27552
2016-07-25T07:54:50.243Z,43296
2016-07-25T07:55:50.077Z,51840
2016-07-25T07:56:50.101Z,55456
2016-07-25T07:57:50.165Z,56864
2016-07-25T07:58:49.592Z,53184
2016-07-25T07:59:50.041Z,56416
2016-07-25T08:00:49.998Z,52448
2016-07-25T08:01:50.194Z,47776
2016-07-25T08:03:50.057Z,45216
2016-07-25T08:04:53.395Z,42112
2016-07-25T08:05:50.118Z,42816
2016-07-25T08:06:57.909Z,45056
2016-07-25T08:08:50.360Z,47776
2016-07-25T08:09:50.070Z,47584
2016-07-25T08:10:50.050Z,46816
2016-07-25T08:11:50.278Z,45472
2016-07-25T08:12:50.239Z,35744
2016-07-25T08:13:50.591Z,38688
2016-07-25T08:14:50.078Z,24608
2016-07-25T08:15:50.895Z,12328
2016-07-25T08:16:50.136Z,9676
2016-07-25T08:17:53.218Z,10128
2016-07-25T08:18:50.090Z,11740
2016-07-25T08:19:53.364Z,21824
2016-07-25T08:20:50.927Z,37216
2016-07-25T08:21:50.073Z,40128
2016-07-25T08:22:50.099Z,46560
2016-07-25T08:23:50.735Z,49248
2016-07-25T08:24:51.775Z,43712
2016-07-25T08:25:50.142Z,40416
2016-07-25T08:26:50.510Z,41952
2016-07-25T08:28:00.493Z,45664
2016-07-25T08:28:50.148Z,50944
2016-07-25T08:29:50.300Z,55328
2016-07-25T08:30:50.099Z,59904
2016-07-25T08:31:56.529Z,55712
2016-07-25T08:32:50.167Z,50528
2016-07-25T08:33:50.675Z,42816
2016-07-25T08:34:50.180Z,40416
2016-07-25T08:35:50.321Z,42080
2016-07-25T08:36:50.103Z,49248
2016-07-25T08:37:50.097Z,53760
2016-07-25T08:38:50.067Z,56352
2016-07-25T08:39:50.140Z,52640
2016-07-25T08:40:50.134Z,47008
2016-07-25T08:41:50.121Z,42016
2016-07-25T08:42:57.755Z,43424
2016-07-25T08:43:50.224Z,49536
2016-07-25T08:44:50.218Z,58144
2016-07-25T08:45:50.209Z,58816
2016-07-25T08:46:50.808Z,51968
2016-07-25T08:47:50.308Z,44800
2016-07-25T08:48:51.226Z,41632
2016-07-25T08:49:52.807Z,42208
2016-07-25T08:51:10.739Z,46656
2016-07-25T08:51:50.176Z,49312
2016-07-25T08:52:49.534Z,56576
2016-07-25T08:53:50.126Z,55840
2016-07-25T08:54:54.012Z,56384
2016-07-25T08:55:49.732Z,53952
2016-07-25T08:56:50.281Z,45408
2016-07-25T08:57:50.246Z,46144
2016-07-25T08:58:52.890Z,40096
2016-07-25T08:59:50.281Z,55776
2016-07-25T09:00:50.259Z,56224
2016-07-25T09:01:55.108Z,48704
2016-07-25T09:03:02.752Z,47584
2016-07-25T09:03:50.382Z,47968
2016-07-25T09:04:54.311Z,53344
2016-07-25T09:05:50.153Z,58208
2016-07-25T09:06:52.981Z,61888
2016-07-25T09:07:50.871Z,63456
2016-07-25T09:08:50.171Z,61632
2016-07-25T09:09:50.393Z,57568
2016-07-25T09:10:50.239Z,50848
2016-07-25T09:11:50.387Z,48064
2016-07-25T09:12:50.412Z,46048
2016-07-25T09:13:51.732Z,49984
2016-07-25T09:14:54.354Z,55040
2016-07-25T09:15:50.176Z,62336
2016-07-25T09:16:50.650Z,67744
2016-07-25T09:17:51.192Z,75424
2016-07-25T09:18:54.831Z,81248
2016-07-25T09:19:51.105Z,81472
2016-07-25T09:20:50.234Z,67680
2016-07-25T09:21:50.186Z,38976
2016-07-25T09:22:51.518Z,42208
2016-07-25T09:23:54.678Z,41184
2016-07-25T09:24:50.240Z,46400
2016-07-25T09:25:50.537Z,62816
2016-07-25T09:26:50.198Z,59456
2016-07-25T09:27:51.235Z,82080
2016-07-25T09:28:50.183Z,86976
2016-07-25T09:29:56.492Z,84672
2016-07-25T09:30:54.943Z,89216
2016-07-25T09:31:51.821Z,82880
2016-07-25T09:32:50.240Z,77728
2016-07-25T09:33:50.272Z,81600
2016-07-25T09:34:50.290Z,78368
2016-07-25T09:35:50.246Z,75200
2016-07-25T09:36:51.232Z,73152
2016-07-25T09:37:50.185Z,80704
2016-07-25T09:38:51.309Z,85216
2016-07-25T09:39:50.918Z,85536
2016-07-25T09:40:50.591Z,81856
2016-07-25T09:41:50.266Z,78176
2016-07-25T09:42:50.414Z,30560
2016-07-25T09:43:50.252Z,83552
2016-07-25T09:44:50.250Z,73664
2016-07-25T09:45:54.461Z,63040
2016-07-25T09:46:50.654Z,55808
2016-07-25T09:47:51.476Z,75040
2016-07-25T09:48:51.592Z,68032
2016-07-25T09:49:53.010Z,73472
2016-07-25T09:50:51.142Z,79616
2016-07-25T09:52:00.340Z,82752
2016-07-25T09:52:50.336Z,79648
2016-07-25T09:53:50.331Z,81632
2016-07-25T09:54:50.291Z,84192
2016-07-25T09:55:50.703Z,83136
2016-07-25T09:56:50.384Z,73056
2016-07-25T09:57:50.430Z,69568
2016-07-25T09:58:53.602Z,70752
2016-07-25T09:59:50.823Z,72000
2016-07-25T10:00:52.082Z,93632
2016-07-25T10:01:50.529Z,94720
2016-07-25T10:02:50.518Z,94656
2016-07-25T10:03:50.354Z,78816
2016-07-25T10:04:50.268Z,90880
2016-07-25T10:05:52.786Z,76768
2016-07-25T10:07:03.239Z,78016
2016-07-25T10:07:50.286Z,76352
2016-07-25T10:08:50.767Z,79232
2016-07-25T10:09:50.345Z,83936
2016-07-25T10:11:17.464Z,83328
2016-07-25T10:11:52.712Z,85952
2016-07-25T10:13:03.350Z,84864
2016-07-25T10:13:50.389Z,81376
2016-07-25T10:14:52.333Z,79904
2016-07-25T10:24:50.850Z,67296
2016-07-25T10:25:08.128Z,68768
2016-07-25T10:26:08.091Z,59616
2016-07-25T10:27:07.995Z,63456
2016-07-25T10:28:19.089Z,66944
2016-07-25T10:29:08.633Z,74592
2016-07-25T10:30:07.994Z,82144
2016-07-25T10:31:08.059Z,85856
2016-07-25T10:32:08.041Z,82944
2016-07-25T10:33:08.087Z,80128
2016-07-25T10:34:13.430Z,75392
2016-07-25T10:35:08.088Z,66016
2016-07-25T10:36:09.132Z,61696
2016-07-25T10:37:08.184Z,60736
2016-07-25T10:38:20.498Z,60416
2016-07-25T10:39:08.644Z,65600
2016-07-25T10:40:08.026Z,71808
2016-07-25T10:41:08.475Z,78784
2016-07-25T10:42:20.661Z,77792
2016-07-25T10:43:08.038Z,78080
2016-07-25T10:44:10.997Z,76288
2016-07-25T10:45:08.060Z,73216
2016-07-25T10:46:15.988Z,69248
2016-07-25T10:47:33.189Z,56192
2016-07-25T10:48:08.172Z,10252
2016-07-25T10:49:08.035Z,23680
2016-07-25T10:50:08.128Z,37184
2016-07-25T10:51:08.150Z,11104
2016-07-25T10:52:17.989Z,12480
2016-07-25T10:53:08.111Z,76000
2016-07-25T10:54:08.455Z,74592
2016-07-25T10:55:08.341Z,84448
2016-07-25T10:56:08.127Z,86592
2016-07-25T10:57:21.775Z,90080
2016-07-25T10:58:20.560Z,90272
2016-07-25T10:59:09.275Z,92736
2016-07-25T11:00:09.889Z,8960
2016-07-25T11:01:08.293Z,8432
2016-07-25T11:02:08.167Z,8728
2016-07-25T11:03:08.257Z,10624
2016-07-25T11:04:09.224Z,80288
2016-07-25T11:05:35.354Z,82016
2016-07-25T11:06:08.218Z,11716
2016-07-25T11:07:08.234Z,67616
2016-07-25T11:08:08.257Z,62944
2016-07-25T11:09:18.480Z,19296
2016-07-25T11:10:21.102Z,50112
2016-07-25T11:11:30.320Z,78720
2016-07-25T11:12:12.079Z,12248
2016-07-25T11:13:08.233Z,9888
2016-07-25T11:14:29.115Z,73056
2016-07-25T11:15:10.873Z,74016
2016-07-25T11:16:12.731Z,77184
2016-07-25T11:17:24.944Z,82848
2016-07-25T11:18:09.805Z,85728
2016-07-25T11:19:13.886Z,88704
2016-07-25T11:20:43.117Z,96800
2016-07-25T11:21:13.255Z,100768
2016-07-25T11:22:08.119Z,104512
2016-07-25T11:23:08.845Z,58496
2016-07-25T11:24:09.082Z,113536
2016-07-25T11:25:16.903Z,17728
2016-07-25T11:38:09.069Z,96224
2016-07-25T11:38:26.084Z,94496
2016-07-25T11:39:26.392Z,88224
2016-07-25T11:52:26.273Z,99680
2016-07-25T11:52:43.553Z,97344
2016-07-25T11:53:55.837Z,97440
2016-07-25T11:54:44.869Z,96000
2016-07-25T11:55:45.204Z,102560
2016-07-25T11:56:43.608Z,109248
2016-07-25T11:57:54.390Z,103520
2016-07-25T11:58:48.198Z,103904
2016-07-25T11:59:51.613Z,106944
2016-07-25T12:00:43.445Z,8904
2016-07-25T12:01:51.609Z,15604
2016-07-25T12:02:44.773Z,11908
2016-07-25T12:03:43.725Z,13912
2016-07-25T12:04:43.425Z,108000
2016-07-25T12:06:10.616Z,98528
2016-07-25T12:06:44.534Z,97760
2016-07-25T12:08:01.761Z,12184
2016-07-25T12:08:43.627Z,10492
2016-07-25T12:09:43.558Z,9676
2016-07-25T12:10:44.897Z,10084
2016-07-25T12:11:48.688Z,13340
2016-07-25T12:12:52.162Z,27264
2016-07-25T12:13:53.781Z,41952
2016-07-25T12:14:43.521Z,105920
2016-07-25T12:15:46.677Z,120352
2016-07-25T12:16:43.554Z,43168
2016-07-25T12:17:52.372Z,14608
2016-07-25T12:19:07.792Z,10648
2016-07-25T12:19:45.761Z,9524
2016-07-25T12:20:43.437Z,8244
2016-07-25T12:21:43.572Z,6948
2016-07-25T12:22:44.522Z,5836
2016-07-25T12:24:13.074Z,5204
2016-07-25T12:24:43.553Z,4868
2016-07-25T12:25:44.357Z,4412
2016-07-25T12:26:45.404Z,3968
2016-07-25T12:27:47.610Z,3644
2016-07-25T12:28:43.532Z,3392
2016-07-25T12:29:43.652Z,3372
2016-07-25T12:30:45.907Z,3448
2016-07-25T12:31:43.659Z,3604
2016-07-25T12:32:45.822Z,3708
2016-07-25T12:33:43.684Z,3784
2016-07-25T12:34:52.961Z,3936
2016-07-25T12:35:43.825Z,4076
2016-07-25T12:36:43.851Z,4384
2016-07-25T12:37:45.287Z,4752
2016-07-25T12:38:44.327Z,4956
2016-07-25T12:39:43.521Z,5164
2016-07-25T12:40:48.206Z,5408
2016-07-25T12:41:50.477Z,5796
2016-07-25T12:42:44.746Z,6096
2016-07-25T12:43:43.734Z,6300
2016-07-25T12:44:43.568Z,6352
2016-07-25T12:45:43.815Z,6368
2016-07-25T12:47:08.281Z,6500
2016-07-25T12:47:43.496Z,6592
2016-07-25T12:48:43.485Z,6748
2016-07-25T12:49:43.581Z,6908
2016-07-25T12:50:43.476Z,7096
2016-07-25T12:51:43.514Z,7300
2016-07-25T12:52:44.468Z,7700
2016-07-25T12:53:49.725Z,7952
2016-07-25T12:54:44.246Z,8032
2016-07-25T12:55:44.907Z,7828
2016-07-25T12:56:43.503Z,7408
2016-07-25T12:57:43.552Z,6932
2016-07-25T12:58:55.812Z,6444
2016-07-25T12:59:43.677Z,6268
2016-07-25T13:00:44.578Z,6088
2016-07-25T13:01:43.534Z,5856
2016-07-25T13:02:43.626Z,5556
2016-07-25T13:04:02.564Z,5216
2016-07-25T13:04:43.629Z,5020
2016-07-25T13:05:47.179Z,4920
2016-07-25T13:06:43.619Z,4796
2016-07-25T13:07:43.619Z,4764
2016-07-25T13:08:49.273Z,4880
2016-07-25T13:09:46.288Z,4992
2016-07-25T13:10:43.645Z,5060
2016-07-25T13:11:43.600Z,5164
2016-07-25T13:12:43.565Z,5468
2016-07-25T13:13:43.860Z,5884
2016-07-25T13:14:43.796Z,6284
2016-07-25T13:15:43.544Z,6680
2016-07-25T13:16:43.974Z,7176
2016-07-25T13:17:43.792Z,7784
2016-07-25T13:18:43.577Z,8836
2016-07-25T13:19:43.681Z,9148
2016-07-25T13:20:43.643Z,8680
2016-07-25T13:21:44.218Z,8684
2016-07-25T13:22:43.760Z,8452
2016-07-25T13:23:44.674Z,8388
2016-07-25T13:24:47.652Z,8656
2016-07-25T13:25:44.660Z,8964
2016-07-25T13:26:43.659Z,9200
2016-07-25T13:28:38.326Z,9536
2016-07-25T13:29:02.420Z,9556
2016-07-25T13:29:59.683Z,9524
2016-07-25T13:31:07.920Z,9660
2016-07-25T13:32:01.141Z,9668
2016-07-25T13:32:58.016Z,9524
2016-07-25T13:33:56.154Z,9376
2016-07-25T13:34:56.139Z,9308
2016-07-25T13:35:56.523Z,9364
2016-07-25T13:36:57.691Z,9428
2016-07-25T13:37:56.905Z,9432
2016-07-25T13:39:05.130Z,9284
2016-07-25T13:40:15.804Z,8968
2016-07-25T13:45:36.165Z,6456
2016-07-25T13:45:53.593Z,6328
2016-07-25T13:46:53.686Z,6012
2016-07-25T13:47:53.616Z,5832
2016-07-25T13:48:53.906Z,5688
2016-07-25T13:49:53.488Z,5620
2016-07-25T13:50:53.731Z,5676
2016-07-25T13:52:05.068Z,5760
2016-07-25T13:53:16.970Z,5960
2016-07-25T13:54:57.446Z,6188
2016-07-25T13:55:57.770Z,6492
2016-07-25T13:57:21.855Z,6944
2016-07-25T13:57:57.847Z,7084
2016-07-25T13:58:58.926Z,7028
2016-07-25T13:59:57.760Z,6688
2016-07-25T14:00:57.792Z,6236
2016-07-25T14:02:58.279Z,5492
2016-07-25T14:04:00.479Z,5272
2016-07-25T14:05:09.455Z,5280
2016-07-25T14:05:58.025Z,5332
2016-07-25T14:06:57.839Z,5328
2016-07-25T14:07:57.967Z,5256
2016-07-25T14:08:57.683Z,4948
2016-07-25T14:09:57.737Z,4664
2016-07-25T14:10:57.787Z,4508
2016-07-25T14:11:57.855Z,4560
2016-07-25T14:13:16.950Z,4704
2016-07-25T14:13:57.944Z,4676
2016-07-25T14:26:58.106Z,3812
2016-07-25T14:27:15.182Z,3820
2016-07-25T14:28:15.565Z,3960
2016-07-25T14:29:15.540Z,4208
2016-07-25T14:30:15.545Z,4504
2016-07-25T14:31:15.611Z,4748
2016-07-25T14:32:15.550Z,5020